Time;durP1;ratioP1;P1;durP2;ratioP2;P2;SDS_P1;SDS_P2;PMS_P1;PMS_P2;Temp;Humidity;BMP_temperature;BMP_pressure;BME280_temperature;BME280_humidity;BME280_pressure;Samples;Min_cycle;Max_cycle;Signal;HPM_P1;HPM_P2
2024/03/30 00:00:56;;;;;;;30.98;5.43;;;;;;;13.70;93.31;94658.56;5018630;28;20209;-75
2024/03/30 00:03:22;;;;;;;41.40;6.18;;;;;;;13.59;94.38;94658.59;5021124;28;20742;-76
2024/03/30 00:05:59;;;;;;;28.73;4.50;;;;;;;13.72;94.83;94664.44;5021752;28;20218;-75
2024/03/30 00:08:24;;;;;;;34.30;5.13;;;;;;;13.37;93.07;94662.88;5019448;28;20221;-77
2024/03/30 00:10:58;;;;;;;39.33;6.57;;;;;;;13.62;86.80;94653.63;5025684;28;20198;-75
2024/03/30 00:13:25;;;;;;;44.63;6.70;;;;;;;13.61;82.71;94656.53;5024862;28;20205;-75
2024/03/30 00:15:51;;;;;;;41.53;6.37;;;;;;;13.62;78.94;94658.94;5028316;28;20205;-76
2024/03/30 00:18:17;;;;;;;44.13;5.87;;;;;;;13.82;74.05;94661.19;5024871;28;20650;-78
2024/03/30 00:20:43;;;;;;;38.50;6.43;;;;;;;13.98;71.99;94657.81;5026857;28;20369;-75
2024/03/30 00:23:09;;;;;;;44.90;6.20;;;;;;;14.16;69.97;94658.44;5028611;28;20236;-77
2024/03/30 00:25:35;;;;;;;40.03;6.30;;;;;;;14.22;69.34;94653.00;5026628;28;20198;-75
2024/03/30 00:28:01;;;;;;;33.87;5.53;;;;;;;14.39;68.28;94659.16;5033995;28;20201;-75
2024/03/30 00:30:31;;;;;;;47.63;5.47;;;;;;;14.54;68.49;94656.78;5027410;28;20476;-75
2024/03/30 00:32:57;;;;;;;32.63;6.33;;;;;;;14.50;67.75;94660.13;5028633;28;20197;-77
2024/03/30 00:35:24;;;;;;;40.53;5.97;;;;;;;14.53;67.02;94657.03;5021091;28;20202;-77
2024/03/30 00:37:51;;;;;;;40.33;7.20;;;;;;;14.47;67.34;94650.81;5023220;28;20399;-75
2024/03/30 00:40:18;;;;;;;33.70;6.43;;;;;;;14.50;67.42;94660.94;5025307;28;20232;-75
2024/03/30 00:42:46;;;;;;;41.67;5.67;;;;;;;14.64;67.51;94651.66;5028755;28;20308;-76
2024/03/30 00:45:13;;;;;;;34.92;5.05;;;;;;;14.45;67.84;94662.72;5021425;28;20213;-77
2024/03/30 00:47:39;;;;;;;29.13;5.90;;;;;;;14.57;67.88;94644.88;5028552;28;20208;-75
2024/03/30 00:50:07;;;;;;;31.20;5.53;;;;;;;14.55;67.63;94660.22;5020223;28;20726;-75
2024/03/30 00:52:33;;;;;;;40.17;6.97;;;;;;;14.51;68.12;94667.03;5031568;28;20194;-76
2024/03/30 00:54:59;;;;;;;33.47;4.50;;;;;;;14.44;68.78;94661.09;5024524;28;20202;-78
2024/03/30 00:57:25;;;;;;;44.13;5.53;;;;;;;14.25;70.38;94659.69;5022645;28;20209;-78
2024/03/30 00:59:52;;;;;;;40.33;4.60;;;;;;;14.25;71.04;94663.13;5022110;28;20261;-75
2024/03/30 01:02:17;;;;;;;50.83;6.70;;;;;;;14.10;71.98;94660.22;5025674;28;20312;-77
2024/03/30 01:04:45;;;;;;;34.08;7.35;;;;;;;14.37;71.46;94657.78;5029442;28;20200;-78
2024/03/30 01:07:11;;;;;;;26.90;4.93;;;;;;;14.11;70.73;94661.78;5021729;28;20216;-75
2024/03/30 01:09:37;;;;;;;35.30;5.30;;;;;;;14.01;71.99;94664.25;5024933;28;20222;-76
2024/03/30 01:12:03;;;;;;;29.43;4.73;;;;;;;14.02;71.29;94652.59;5027585;28;20499;-75
2024/03/30 01:14:33;;;;;;;32.20;5.07;;;;;;;13.99;70.99;94654.91;5026063;28;20197;-75
2024/03/30 01:16:59;;;;;;;29.57;5.00;;;;;;;13.95;70.06;94655.63;5023522;28;20683;-77
2024/03/30 01:19:26;;;;;;;27.47;4.73;;;;;;;13.92;69.63;94656.88;5020991;28;20225;-76
2024/03/30 01:21:53;;;;;;;34.17;5.07;;;;;;;13.99;69.96;94657.56;5023173;28;20205;-77
2024/03/30 01:24:20;;;;;;;39.47;5.63;;;;;;;13.75;70.16;94658.66;5021792;28;20229;-78
2024/03/30 01:26:51;;;;;;;28.83;4.17;;;;;;;13.91;70.94;94652.63;5024805;28;20197;-77
2024/03/30 01:29:24;;;;;;;36.03;4.47;;;;;;;13.75;72.68;94656.03;5020897;28;20384;-76
2024/03/30 01:31:50;;;;;;;27.17;3.70;;;;;;;13.61;71.33;94653.88;5030102;28;20206;-77
2024/03/30 01:34:17;;;;;;;31.73;4.30;;;;;;;13.69;71.14;94656.16;5029468;28;20206;-76
2024/03/30 01:36:43;;;;;;;35.97;3.83;;;;;;;13.63;70.28;94651.78;5029944;28;20206;-77
2024/03/30 01:39:11;;;;;;;36.47;5.63;;;;;;;13.74;71.08;94656.25;5018586;28;20240;-75
2024/03/30 01:41:36;;;;;;;30.57;5.23;;;;;;;13.65;70.68;94655.81;5020993;28;20206;-75
2024/03/30 01:44:04;;;;;;;33.40;4.00;;;;;;;13.52;70.87;94647.34;5021802;28;20236;-76
2024/03/30 01:46:32;;;;;;;30.23;4.60;;;;;;;13.64;70.53;94650.75;5019336;28;20690;-77
2024/03/30 01:49:00;;;;;;;29.83;5.33;;;;;;;13.67;69.67;94651.09;5019919;28;20249;-75
2024/03/30 01:51:26;;;;;;;24.93;3.93;;;;;;;13.71;69.18;94654.88;5023609;28;20216;-75
2024/03/30 01:53:52;;;;;;;28.33;4.43;;;;;;;13.73;67.65;94650.16;5019038;28;20197;-75
2024/03/30 01:56:21;;;;;;;33.80;4.60;;;;;;;13.82;69.15;94653.25;5023045;28;20653;-77
2024/03/30 01:58:49;;;;;;;24.03;3.73;;;;;;;13.71;68.38;94651.41;5021879;28;20707;-75
2024/03/30 02:01:15;;;;;;;29.50;4.47;;;;;;;13.70;68.77;94655.91;5025275;28;20249;-75
2024/03/30 02:03:42;;;;;;;27.13;4.17;;;;;;;13.42;72.83;94649.75;5023022;28;20225;-75
2024/03/30 02:06:08;;;;;;;30.60;4.00;;;;;;;13.18;72.48;94650.00;5020707;28;20201;-75
2024/03/30 02:08:36;;;;;;;35.67;5.37;;;;;;;13.30;73.53;94646.34;5022262;28;20804;-76
2024/03/30 02:11:02;;;;;;;21.20;3.60;;;;;;;13.37;69.15;94652.28;5025657;28;20208;-77
2024/03/30 02:13:30;;;;;;;40.20;5.57;;;;;;;13.66;67.56;94649.47;5021101;28;20198;-74
2024/03/30 02:15:55;;;;;;;18.93;3.60;;;;;;;13.55;65.74;94655.59;5020861;28;20197;-76
2024/03/30 02:18:22;;;;;;;29.63;4.43;;;;;;;13.58;65.38;94652.50;5023817;28;20224;-77
2024/03/30 02:20:47;;;;;;;17.80;3.77;;;;;;;13.66;64.18;94646.84;5020929;28;20212;-76
2024/03/30 02:23:16;;;;;;;24.70;4.10;;;;;;;13.86;63.27;94639.31;5020906;28;20229;-75
2024/03/30 02:25:42;;;;;;;24.93;3.90;;;;;;;13.65;63.40;94639.94;5022276;28;20205;-77
2024/03/30 02:28:08;;;;;;;25.80;4.07;;;;;;;13.69;62.16;94640.28;5020085;28;20417;-75
2024/03/30 02:30:34;;;;;;;25.07;4.90;;;;;;;13.63;63.06;94642.03;5021051;28;20201;-76
2024/03/30 02:33:01;;;;;;;42.23;3.97;;;;;;;13.62;64.17;94642.22;5020114;28;20249;-76
2024/03/30 02:35:27;;;;;;;24.03;3.20;;;;;;;13.58;63.34;94639.25;5019155;28;20364;-75
2024/03/30 02:37:54;;;;;;;24.87;3.10;;;;;;;13.53;64.63;94644.44;5025279;28;20193;-75
2024/03/30 02:40:22;;;;;;;24.27;4.07;;;;;;;13.63;63.93;94636.72;5021874;28;20240;-75
2024/03/30 02:42:49;;;;;;;24.30;3.70;;;;;;;13.61;62.68;94643.28;5025833;28;20225;-74
2024/03/30 02:45:15;;;;;;;25.60;4.43;;;;;;;13.72;61.93;94645.91;5018562;28;20205;-75
2024/03/30 02:47:41;;;;;;;16.30;3.70;;;;;;;13.67;64.31;94648.44;5020703;28;20206;-75
2024/03/30 02:50:07;;;;;;;20.33;2.37;;;;;;;13.68;61.99;94642.13;5018875;28;20230;-76
2024/03/30 02:52:34;;;;;;;22.00;2.93;;;;;;;13.64;61.88;94640.97;5021696;28;20201;-75
2024/03/30 02:55:00;;;;;;;32.63;4.03;;;;;;;13.88;59.73;94642.50;5018689;28;20664;-76
2024/03/30 02:57:27;;;;;;;17.40;3.33;;;;;;;14.18;59.07;94632.53;5020605;28;20205;-75
2024/03/30 02:59:54;;;;;;;19.57;3.17;;;;;;;14.19;57.53;94631.47;5020386;28;20225;-77
2024/03/30 03:02:20;;;;;;;22.50;3.67;;;;;;;14.26;57.72;94626.84;5018654;28;20228;-75
2024/03/30 03:04:46;;;;;;;22.23;3.33;;;;;;;14.25;57.39;94635.84;5019584;28;20198;-74
2024/03/30 03:07:13;;;;;;;27.57;3.60;;;;;;;14.11;58.79;94639.81;5019438;28;20597;-78
2024/03/30 03:09:39;;;;;;;18.87;3.67;;;;;;;14.07;59.54;94644.75;5017388;28;20608;-75
2024/03/30 03:12:06;;;;;;;14.00;2.70;;;;;;;14.16;59.22;94643.34;5019737;28;20469;-75
2024/03/30 03:14:33;;;;;;;21.70;3.83;;;;;;;14.15;59.28;94641.78;5021075;28;20198;-75
2024/03/30 03:16:59;;;;;;;14.73;2.17;;;;;;;13.98;60.22;94640.06;5017993;28;20932;-75
2024/03/30 03:19:25;;;;;;;23.88;4.90;;;;;;;13.93;61.54;94636.53;5028327;28;20220;-76
2024/03/30 03:21:51;;;;;;;26.97;3.77;;;;;;;13.75;62.28;94634.84;5023835;28;20207;-75
2024/03/30 03:24:17;;;;;;;19.63;2.80;;;;;;;13.46;65.46;94624.44;5019370;28;21054;-77
2024/03/30 03:26:43;;;;;;;18.60;3.13;;;;;;;13.38;68.20;94620.31;5028186;28;20212;-75
2024/03/30 03:29:10;;;;;;;8.80;1.80;;;;;;;13.25;70.52;94611.00;5017612;28;20221;-76
2024/03/30 03:31:38;;;;;;;22.87;3.37;;;;;;;12.94;76.82;94606.88;5021326;28;20202;-76
2024/03/30 03:34:03;;;;;;;20.13;3.63;;;;;;;12.81;79.75;94608.94;5018654;28;20217;-76
2024/03/30 03:36:30;;;;;;;7.37;1.80;;;;;;;12.77;79.04;94603.31;5019496;28;20201;-77
2024/03/30 03:38:55;;;;;;;28.87;3.47;;;;;;;12.72;80.32;94601.59;5022858;28;20235;-76
2024/03/30 03:41:22;;;;;;;24.80;2.63;;;;;;;12.64;79.53;94592.16;5017475;28;21003;-76
2024/03/30 03:43:47;;;;;;;24.17;3.07;;;;;;;12.67;81.94;94594.34;5017379;28;20597;-75
2024/03/30 03:46:14;;;;;;;20.03;3.40;;;;;;;12.49;87.65;94594.44;5023039;28;20205;-74
2024/03/30 03:48:41;;;;;;;14.57;2.83;;;;;;;12.60;89.55;94596.31;5031620;28;20228;-75
2024/03/30 03:51:08;;;;;;;20.33;3.07;;;;;;;12.32;91.68;94595.31;5025592;28;20210;-74
2024/03/30 03:53:34;;;;;;;13.13;2.13;;;;;;;12.21;93.91;94596.91;5026154;28;20297;-75
2024/03/30 03:56:00;;;;;;;14.67;3.13;;;;;;;12.28;89.21;94592.34;5024801;28;20202;-74
2024/03/30 03:58:26;;;;;;;26.93;4.10;;;;;;;12.31;84.92;94591.88;5024997;28;20331;-74
2024/03/30 04:00:52;;;;;;;25.73;3.67;;;;;;;12.25;90.60;94591.97;5029577;28;20667;-74
2024/03/30 04:03:18;;;;;;;17.40;2.97;;;;;;;12.21;90.13;94586.34;5028880;28;20229;-78
2024/03/30 04:05:46;;;;;;;18.37;2.63;;;;;;;12.45;89.91;94582.72;5032078;28;20566;-74
2024/03/30 04:08:11;;;;;;;19.83;3.27;;;;;;;11.85;93.95;94579.56;5031544;28;20206;-75
2024/03/30 04:10:38;;;;;;;16.77;3.17;;;;;;;11.84;93.46;94596.47;5027791;28;20208;-74
2024/03/30 04:13:03;;;;;;;25.53;3.63;;;;;;;11.58;96.84;94594.97;5023339;28;20208;-75
2024/03/30 04:15:30;;;;;;;21.47;3.50;;;;;;;11.96;96.21;94597.28;5027486;28;20577;-76
2024/03/30 04:17:55;;;;;;;33.00;4.80;;;;;;;11.58;100.00;94609.97;5026567;28;20210;-76
2024/03/30 04:20:22;;;;;;;29.40;4.30;;;;;;;11.65;100.00;94605.44;5032897;28;20201;-75
2024/03/30 04:22:49;;;;;;;24.97;4.17;;;;;;;11.71;100.00;94599.25;5023645;28;20228;-75
2024/03/30 04:25:15;;;;;;;25.47;4.27;;;;;;;11.48;100.00;94593.03;5030039;28;20206;-74
2024/03/30 04:27:41;;;;;;;31.53;4.63;;;;;;;11.57;100.00;94603.13;5026802;28;20202;-74
2024/03/30 04:30:11;;;;;;;24.57;4.67;;;;;;;11.58;100.00;94605.53;5024816;28;20723;-76
2024/03/30 04:32:36;;;;;;;34.67;4.47;;;;;;;11.52;100.00;94594.22;5029906;28;20655;-77
2024/03/30 04:35:03;;;;;;;15.83;3.07;;;;;;;11.65;100.00;94592.25;5024170;28;20206;-77
2024/03/30 04:37:30;;;;;;;25.10;4.03;;;;;;;11.50;100.00;94586.56;5026410;28;20406;-75
2024/03/30 04:39:58;;;;;;;31.73;4.83;;;;;;;11.71;100.00;94584.25;5027685;28;20233;-74
2024/03/30 04:42:23;;;;;;;19.30;4.57;;;;;;;11.38;100.00;94583.03;5030762;28;20209;-76
2024/03/30 04:44:50;;;;;;;27.30;4.37;;;;;;;11.53;100.00;94575.53;5027091;28;20209;-75
2024/03/30 04:47:15;;;;;;;26.63;4.97;;;;;;;11.59;100.00;94572.81;5027348;28;20209;-77
2024/03/30 04:49:42;;;;;;;39.37;4.50;;;;;;;11.52;100.00;94555.50;5026692;28;20228;-74
2024/03/30 04:52:07;;;;;;;22.23;4.87;;;;;;;11.49;100.00;94544.53;5026868;28;20356;-73
2024/03/30 04:54:34;;;;;;;33.70;4.67;;;;;;;11.40;100.00;94527.41;5024395;28;20205;-74
2024/03/30 04:57:01;;;;;;;32.50;4.90;;;;;;;11.46;100.00;94526.53;5026795;28;20202;-74
2024/03/30 04:59:27;;;;;;;16.20;5.03;;;;;;;11.04;100.00;94548.56;5021259;28;20226;-74
2024/03/30 05:01:54;;;;;;;24.50;5.17;;;;;;;11.20;100.00;94576.94;5020995;28;20552;-75
2024/03/30 05:04:21;;;;;;;25.60;4.37;;;;;;;11.27;100.00;94580.31;5025618;28;20409;-75
2024/03/30 05:06:46;;;;;;;21.57;4.93;;;;;;;11.01;100.00;94564.81;5020263;28;20558;-76
2024/03/30 05:09:13;;;;;;;29.10;6.17;;;;;;;10.93;100.00;94584.34;5023663;28;20695;-74
2024/03/30 05:11:39;;;;;;;25.73;4.07;;;;;;;10.87;100.00;94581.78;5023027;28;20198;-74
2024/03/30 05:14:06;;;;;;;24.90;3.87;;;;;;;11.02;100.00;94572.50;5022020;28;20198;-75
2024/03/30 05:16:32;;;;;;;22.00;3.57;;;;;;;10.92;100.00;94570.56;5021729;28;20233;-75
2024/03/30 05:19:00;;;;;;;28.67;4.03;;;;;;;11.00;100.00;94558.72;5023114;28;20710;-77
2024/03/30 05:21:26;;;;;;;18.80;3.53;;;;;;;10.99;100.00;94562.38;5026145;28;20300;-75
2024/03/30 05:23:52;;;;;;;26.10;5.03;;;;;;;11.06;100.00;94573.66;5025715;28;20603;-76
2024/03/30 05:26:18;;;;;;;35.60;5.50;;;;;;;11.04;100.00;94569.63;5019079;28;20463;-77
2024/03/30 05:28:44;;;;;;;25.43;4.67;;;;;;;11.06;100.00;94562.31;5023462;28;20657;-75
2024/03/30 05:31:22;;;;;;;31.27;4.00;;;;;;;11.16;100.00;94555.50;5030017;28;20209;-75
2024/03/30 05:33:48;;;;;;;31.17;5.00;;;;;;;10.79;100.00;94576.00;5022947;28;20287;-74
2024/03/30 05:36:14;;;;;;;23.47;3.13;;;;;;;10.81;100.00;94579.22;5026936;28;20205;-74
2024/03/30 05:38:41;;;;;;;29.93;5.90;;;;;;;10.93;100.00;94582.75;5023022;28;20226;-75
2024/03/30 05:41:06;;;;;;;30.43;5.07;;;;;;;11.00;100.00;94585.06;5023919;28;20202;-74
2024/03/30 05:43:33;;;;;;;28.40;4.50;;;;;;;11.07;100.00;94577.91;5028453;28;20231;-76
2024/03/30 05:45:58;;;;;;;38.80;4.63;;;;;;;10.91;100.00;94568.97;5020107;28;20953;-74
2024/03/30 05:48:26;;;;;;;23.87;4.73;;;;;;;11.16;100.00;94563.41;5024577;28;20940;-75
2024/03/30 05:50:52;;;;;;;37.30;4.87;;;;;;;11.11;100.00;94560.63;5026790;28;20305;-77
2024/03/30 05:53:18;;;;;;;37.10;4.23;;;;;;;10.68;100.00;94547.72;5027138;28;20662;-74
2024/03/30 05:55:46;;;;;;;17.20;3.87;;;;;;;10.86;100.00;94547.72;5019052;28;20202;-75
2024/03/30 05:58:14;;;;;;;28.70;5.07;;;;;;;10.96;100.00;94556.75;5020235;28;20216;-76
2024/03/30 06:00:40;;;;;;;23.83;4.17;;;;;;;11.07;100.00;94559.47;5019838;28;20198;-75
2024/03/30 06:03:07;;;;;;;20.30;4.70;;;;;;;10.98;100.00;94554.69;5019084;28;20258;-74
2024/03/30 06:05:34;;;;;;;26.20;3.60;;;;;;;11.12;100.00;94549.03;5021678;28;20201;-77
2024/03/30 06:08:01;;;;;;;19.23;3.63;;;;;;;10.97;100.00;94553.91;5019995;28;20225;-76
2024/03/30 06:10:26;;;;;;;27.33;6.03;;;;;;;10.75;100.00;94553.75;5024888;28;20282;-78
2024/03/30 06:12:53;;;;;;;31.17;6.63;;;;;;;10.93;100.00;94551.91;5022648;28;20291;-75
2024/03/30 06:15:19;;;;;;;41.37;5.50;;;;;;;10.76;100.00;94558.00;5020234;28;20206;-77
2024/03/30 06:17:45;;;;;;;23.57;4.17;;;;;;;10.85;100.00;94560.13;5025580;28;20202;-74
2024/03/30 06:20:11;;;;;;;32.53;5.47;;;;;;;11.00;100.00;94561.34;5018783;28;20230;-75
2024/03/30 06:22:40;;;;;;;24.33;4.03;;;;;;;10.99;100.00;94562.38;5019264;28;20205;-73
2024/03/30 06:25:06;;;;;;;31.87;3.47;;;;;;;10.92;100.00;94552.13;5024496;28;20852;-75
2024/03/30 06:27:33;;;;;;;27.27;3.57;;;;;;;10.86;100.00;94558.28;5021412;28;20205;-75
2024/03/30 06:29:59;;;;;;;22.47;5.03;;;;;;;11.02;100.00;94561.97;5021874;28;20344;-76
2024/03/30 06:32:26;;;;;;;23.27;4.63;;;;;;;11.18;100.00;94557.94;5018394;28;20960;-75
2024/03/30 06:34:51;;;;;;;26.00;5.60;;;;;;;11.30;100.00;94549.06;5021862;28;20912;-76
2024/03/30 06:37:18;;;;;;;33.80;4.43;;;;;;;11.58;100.00;94541.38;5018663;28;20210;-77
2024/03/30 06:45:14;;;;;;;23.87;4.73;;;;;;;12.18;100.00;94539.28;5018643;28;20263;-74
2024/03/30 06:47:41;;;;;;;24.73;4.40;;;;;;;12.33;100.00;94537.00;5019116;28;20209;-74
2024/03/30 06:50:08;;;;;;;21.97;5.23;;;;;;;12.62;100.00;94532.66;5019069;28;20224;-74
2024/03/30 06:52:34;;;;;;;25.80;3.90;;;;;;;12.67;100.00;94530.13;5021620;28;20209;-75
2024/03/30 06:55:02;;;;;;;23.73;4.07;;;;;;;12.91;100.00;94537.84;5019485;28;20567;-77
2024/03/30 06:57:27;;;;;;;29.40;3.97;;;;;;;12.91;100.00;94532.56;5019489;28;20202;-77
2024/03/30 06:59:54;;;;;;;20.47;4.20;;;;;;;12.69;100.00;94531.50;5022412;28;20726;-78
2024/03/30 07:02:19;;;;;;;22.73;3.90;;;;;;;12.92;100.00;94526.22;5019536;28;20206;-74
2024/03/30 07:04:46;;;;;;;34.80;3.40;;;;;;;13.10;100.00;94532.16;5018971;28;20597;-76
2024/03/30 07:07:11;;;;;;;20.73;4.40;;;;;;;13.35;100.00;94527.38;5018422;28;20205;-77
2024/03/30 07:09:38;;;;;;;28.17;4.43;;;;;;;13.62;100.00;94531.91;5018371;28;20221;-74
2024/03/30 07:12:05;;;;;;;26.53;3.87;;;;;;;13.73;100.00;94525.72;5018781;28;20212;-76
2024/03/30 07:14:32;;;;;;;24.63;3.57;;;;;;;13.94;100.00;94526.91;5018996;28;20193;-77
2024/03/30 07:16:57;;;;;;;30.33;4.23;;;;;;;14.03;100.00;94513.03;5019596;28;20600;-75
2024/03/30 07:19:24;;;;;;;21.20;3.97;;;;;;;14.33;100.00;94514.38;5017050;28;20225;-75
2024/03/30 07:21:50;;;;;;;30.27;4.27;;;;;;;14.59;94.54;94520.84;5020394;28;20285;-74
2024/03/30 07:24:17;;;;;;;29.23;4.33;;;;;;;14.67;92.63;94510.66;5019389;28;20317;-75
2024/03/30 07:26:43;;;;;;;24.77;3.37;;;;;;;14.98;92.84;94513.50;5023739;28;20378;-77
2024/03/30 07:29:11;;;;;;;18.85;3.90;;;;;;;15.19;92.78;94506.63;5019207;28;20700;-75
2024/03/30 07:31:37;;;;;;;23.67;4.03;;;;;;;15.24;99.76;94504.06;5019301;28;20616;-74
2024/03/30 07:34:03;;;;;;;30.23;4.60;;;;;;;15.46;98.09;94498.47;5017933;28;20312;-77
2024/03/30 07:36:29;;;;;;;32.05;4.32;;;;;;;15.59;93.14;94491.97;5018711;28;20206;-76
2024/03/30 07:38:55;;;;;;;22.88;3.65;;;;;;;15.69;91.97;94487.56;5017166;28;21019;-77
2024/03/30 07:41:22;;;;;;;28.80;4.10;;;;;;;15.96;91.47;94489.19;5017864;28;20216;-77
2024/03/30 07:43:47;;;;;;;42.28;5.63;;;;;;;16.13;85.70;94495.19;5018337;28;20222;-76
2024/03/30 07:46:15;;;;;;;34.78;4.53;;;;;;;16.40;79.22;94484.56;5017914;28;20210;-78
2024/03/30 07:48:41;;;;;;;17.77;3.53;;;;;;;16.46;78.82;94484.34;5017737;28;20228;-76
2024/03/30 07:51:07;;;;;;;33.50;4.40;;;;;;;16.67;86.87;94478.09;5015908;28;20200;-76
2024/03/30 07:53:33;;;;;;;16.73;3.58;;;;;;;16.80;81.24;94475.81;5018464;28;20202;-74
2024/03/30 07:56:00;;;;;;;24.77;4.05;;;;;;;16.82;81.29;94478.97;5023876;28;20212;-78
2024/03/30 07:58:25;;;;;;;26.80;4.40;;;;;;;17.05;79.04;94483.13;5025537;28;20225;-76
2024/03/30 08:00:52;;;;;;;19.13;3.53;;;;;;;17.08;75.49;94482.59;5019325;28;20202;-75
2024/03/30 08:03:19;;;;;;;15.85;4.07;;;;;;;17.56;77.06;94480.44;5016730;28;20213;-75
2024/03/30 08:05:55;;;;;;;27.05;4.15;;;;;;;17.72;75.06;94475.69;5019358;28;20239;-74
2024/03/30 08:08:20;;;;;;;23.42;4.30;;;;;;;16.98;84.68;94487.84;5016987;28;20715;-75
2024/03/30 08:10:47;;;;;;;25.90;4.10;;;;;;;16.81;88.01;94488.00;5016606;28;20210;-76
2024/03/30 08:13:12;;;;;;;21.98;3.38;;;;;;;16.88;91.23;94485.94;5019810;28;20209;-75
2024/03/30 08:15:40;;;;;;;15.73;3.47;;;;;;;16.63;88.36;94485.78;5020986;28;20213;-76
2024/03/30 08:18:06;;;;;;;22.17;4.28;;;;;;;16.95;88.75;94485.72;5018148;28;20208;-74
2024/03/30 08:20:34;;;;;;;19.77;3.40;;;;;;;17.09;85.97;94485.00;5019699;28;20213;-75
2024/03/30 08:22:59;;;;;;;26.80;3.55;;;;;;;17.33;89.18;94483.53;5022370;28;20208;-76
2024/03/30 08:25:26;;;;;;;22.30;3.80;;;;;;;17.29;83.76;94485.91;5020374;28;20225;-75
2024/03/30 08:27:51;;;;;;;22.85;3.17;;;;;;;17.82;80.94;94478.38;5020201;28;20578;-76
2024/03/30 08:30:18;;;;;;;29.85;3.65;;;;;;;17.96;79.56;94473.31;5017188;28;20231;-78
2024/03/30 08:32:44;;;;;;;18.10;2.65;;;;;;;18.14;75.20;94488.81;5022297;28;20652;-78
2024/03/30 08:35:11;;;;;;;31.83;3.60;;;;;;;18.42;71.79;94486.50;5024960;28;20205;-77
2024/03/30 08:37:38;;;;;;;19.88;3.97;;;;;;;18.74;69.19;94479.00;5022376;28;20210;-78
2024/03/30 08:40:05;;;;;;;21.25;3.83;;;;;;;19.03;70.60;94480.81;5021357;28;20813;-76
2024/03/30 08:42:31;;;;;;;17.67;3.70;;;;;;;19.13;71.53;94472.78;5023732;28;20241;-75
2024/03/30 08:44:57;;;;;;;16.55;3.95;;;;;;;19.02;67.09;94479.22;5024274;28;20704;-78
2024/03/30 08:47:23;;;;;;;20.30;4.00;;;;;;;19.32;66.78;94463.94;5021878;28;20571;-75
2024/03/30 08:49:49;;;;;;;28.60;3.40;;;;;;;19.39;66.02;94469.00;5023621;28;20217;-78
2024/03/30 08:52:15;;;;;;;24.45;2.88;;;;;;;19.56;66.15;94472.13;5021857;28;20205;-78
2024/03/30 08:54:43;;;;;;;14.00;3.63;;;;;;;19.62;65.02;94472.59;5023931;28;20655;-76
2024/03/30 08:57:08;;;;;;;30.00;4.90;;;;;;;19.65;64.02;94477.41;5021382;28;20263;-75
2024/03/30 08:59:35;;;;;;;14.75;2.38;;;;;;;19.94;60.24;94464.97;5022972;28;20277;-78
2024/03/30 09:02:00;;;;;;;21.77;3.40;;;;;;;19.94;61.20;94469.53;5019880;28;20264;-75
2024/03/30 09:04:27;;;;;;;25.08;3.67;;;;;;;19.89;61.70;94467.66;5020616;28;20313;-76
2024/03/30 09:06:53;;;;;;;19.50;2.88;;;;;;;20.31;63.21;94470.63;5029196;28;20205;-77
2024/03/30 09:09:20;;;;;;;25.50;3.03;;;;;;;20.39;61.09;94472.69;5022325;28;20221;-75
2024/03/30 09:11:47;;;;;;;29.25;4.65;;;;;;;20.72;61.52;94467.34;5025428;28;20209;-75
2024/03/30 09:14:13;;;;;;;34.03;5.50;;;;;;;20.65;61.23;94466.88;5021583;28;20228;-77
2024/03/30 09:16:39;;;;;;;18.35;2.95;;;;;;;20.46;59.33;94473.19;5020493;28;20202;-78
2024/03/30 09:19:05;;;;;;;21.27;4.22;;;;;;;20.54;59.92;94472.59;5023174;28;20996;-75
2024/03/30 09:21:31;;;;;;;13.00;2.42;;;;;;;20.50;57.02;94469.66;5020117;28;20205;-77
2024/03/30 09:23:57;;;;;;;27.48;3.97;;;;;;;20.74;57.36;94473.25;5021084;28;20233;-75
2024/03/30 09:26:23;;;;;;;21.58;2.60;;;;;;;20.83;56.47;94470.75;5023448;28;20210;-78
2024/03/30 09:28:51;;;;;;;14.30;3.22;;;;;;;20.95;55.18;94463.94;5021101;28;20228;-77
2024/03/30 09:31:16;;;;;;;11.65;1.92;;;;;;;20.72;53.71;94469.22;5024591;28;20206;-74
2024/03/30 09:33:43;;;;;;;7.20;2.13;;;;;;;21.01;48.28;94470.84;5026206;28;20209;-77
2024/03/30 09:36:11;;;;;;;13.43;1.63;;;;;;;21.52;42.71;94473.53;5027808;28;20233;-75
2024/03/30 09:38:38;;;;;;;14.48;2.38;;;;;;;21.51;42.89;94474.59;5024427;28;20260;-76
2024/03/30 09:41:06;;;;;;;13.13;1.63;;;;;;;22.03;42.74;94463.72;5020082;28;20236;-75
2024/03/30 09:43:33;;;;;;;12.82;1.88;;;;;;;22.13;41.54;94467.09;5021175;28;20202;-77
2024/03/30 09:46:01;;;;;;;23.35;2.38;;;;;;;22.43;42.97;94463.16;5021392;28;20208;-77
2024/03/30 09:48:31;;;;;;;16.58;2.70;;;;;;;22.25;40.55;94469.31;5022168;28;20222;-75
2024/03/30 09:50:57;;;;;;;12.48;3.28;;;;;;;22.31;40.45;94465.50;5021449;28;20206;-75
2024/03/30 09:53:25;;;;;;;26.60;1.95;;;;;;;22.29;39.85;94457.75;5019766;28;20198;-75
2024/03/30 09:55:53;;;;;;;13.98;2.40;;;;;;;22.52;41.01;94467.59;5023752;28;20336;-75
2024/03/30 09:58:20;;;;;;;13.88;2.45;;;;;;;22.43;40.50;94461.28;5018755;28;20229;-75
2024/03/30 10:00:46;;;;;;;8.45;2.45;;;;;;;22.42;40.59;94456.22;5021203;28;21227;-79
2024/03/30 10:03:14;;;;;;;13.80;2.88;;;;;;;22.81;40.68;94457.41;5019452;28;20212;-75
2024/03/30 10:05:42;;;;;;;7.38;2.30;;;;;;;22.52;40.28;94458.75;5020725;28;20233;-78
2024/03/30 10:08:16;;;;;;;14.00;1.75;;;;;;;22.69;41.46;94446.34;5021732;28;20209;-76
2024/03/30 10:10:44;;;;;;;7.05;1.55;;;;;;;22.64;41.62;94453.72;5019947;28;20201;-76
2024/03/30 10:13:21;;;;;;;10.35;2.30;;;;;;;23.02;41.50;94450.66;5023327;28;20208;-73
2024/03/30 10:15:52;;;;;;;11.05;1.90;;;;;;;22.72;40.97;94445.75;5027251;28;20289;-75
2024/03/30 10:18:20;;;;;;;18.45;2.45;;;;;;;22.96;41.19;94441.03;5033583;28;20312;-74
2024/03/30 10:20:45;;;;;;;15.60;2.45;;;;;;;22.80;41.37;94440.50;5023401;28;20304;-75
2024/03/30 10:23:12;;;;;;;6.70;2.03;;;;;;;22.91;41.63;94431.19;5024618;28;20212;-78
2024/03/30 10:25:38;;;;;;;11.57;2.55;;;;;;;23.01;41.02;94439.09;5023456;28;20225;-74
2024/03/30 10:28:06;;;;;;;16.67;2.08;;;;;;;23.27;42.00;94429.47;5023442;28;20227;-74
2024/03/30 10:30:31;;;;;;;11.77;2.15;;;;;;;23.18;40.70;94442.03;5018683;28;20672;-77
2024/03/30 10:33:04;;;;;;;6.05;1.77;;;;;;;23.39;40.10;94438.63;5023006;28;20209;-73
2024/03/30 10:35:32;;;;;;;20.67;2.50;;;;;;;23.30;40.35;94443.09;5022729;28;20202;-76
2024/03/30 10:37:58;;;;;;;11.95;3.10;;;;;;;23.24;40.13;94431.97;5021195;28;20206;-73
2024/03/30 10:40:24;;;;;;;13.45;2.28;;;;;;;23.60;40.13;94433.63;5020486;28;20201;-78
2024/03/30 10:42:57;;;;;;;12.27;2.65;;;;;;;23.93;40.46;94435.94;5021322;28;20201;-73
2024/03/30 10:45:24;;;;;;;10.13;1.40;;;;;;;23.63;38.84;94436.53;5024093;28;20248;-75
2024/03/30 10:47:55;;;;;;;14.13;1.48;;;;;;;23.81;39.68;94432.94;5022975;28;21561;-72
2024/03/30 10:50:21;;;;;;;18.27;2.45;;;;;;;23.36;38.49;94433.84;5017063;28;20842;-75
2024/03/30 10:52:49;;;;;;;11.52;2.33;;;;;;;23.91;38.63;94432.75;5025628;28;20220;-74
2024/03/30 10:55:15;;;;;;;7.22;2.75;;;;;;;23.91;38.90;94429.25;5019168;28;20212;-74
2024/03/30 10:57:42;;;;;;;13.13;1.88;;;;;;;23.96;39.69;94425.34;5020591;28;20315;-76
2024/03/30 11:00:10;;;;;;;18.65;3.13;;;;;;;24.05;38.92;94428.13;5017633;28;21021;-74
2024/03/30 11:02:38;;;;;;;15.30;2.72;;;;;;;23.98;38.77;94422.34;5032778;28;20575;-77
2024/03/30 11:05:06;;;;;;;17.38;2.75;;;;;;;24.23;38.31;94425.28;5021248;28;20225;-72
2024/03/30 11:07:37;;;;;;;12.20;1.95;;;;;;;23.99;37.41;94427.44;5022387;28;20202;-78
2024/03/30 11:10:05;;;;;;;10.95;2.40;;;;;;;23.97;37.50;94426.16;5024020;28;20255;-77
2024/03/30 11:12:33;;;;;;;16.83;2.40;;;;;;;23.73;38.25;94420.22;5023324;28;20224;-73
2024/03/30 11:14:58;;;;;;;11.02;2.08;;;;;;;23.83;38.03;94422.69;5019702;28;20194;-73
2024/03/30 11:17:30;;;;;;;6.13;1.10;;;;;;;23.85;38.59;94431.25;5020971;28;20201;-73
2024/03/30 11:20:08;;;;;;;12.48;2.42;;;;;;;24.14;37.97;94424.41;5029154;28;20225;-73
2024/03/30 11:22:46;;;;;;;11.52;2.55;;;;;;;23.87;37.50;94421.00;5033025;28;20358;-73
2024/03/30 11:25:14;;;;;;;11.30;1.50;;;;;;;23.63;38.05;94425.00;5037255;28;20213;-75
2024/03/30 11:27:48;;;;;;;7.45;1.77;;;;;;;23.86;38.07;94424.00;5033228;28;20697;-73